Time;durP1;ratioP1;P1;durP2;ratioP2;P2;SDS_P1;SDS_P2;PMS_P1;PMS_P2;Temp;Humidity;BMP_temperature;BMP_pressure;BME280_temperature;BME280_humidity;BME280_pressure;Samples;Min_cycle;Max_cycle;Signal;HPM_P1;HPM_P2
2021/07/03 00:01:10;;;;;;;24.20;18.13;;;;;;;15.63;82.06;101709.91;5075824;28;20083;-40
2021/07/03 00:03:36;;;;;;;20.52;17.00;;;;;;;15.62;81.75;101716.41;5076056;28;20028;-40
2021/07/03 00:06:01;;;;;;;24.38;19.90;;;;;;;15.59;82.07;101716.88;5075709;28;20028;-40
2021/07/03 00:08:27;;;;;;;22.63;20.15;;;;;;;15.61;82.55;101714.72;5075960;28;20067;-40
2021/07/03 00:10:54;;;;;;;22.23;16.63;;;;;;;15.55;82.00;101717.59;5074689;28;20082;-40
2021/07/03 00:13:20;;;;;;;23.45;18.05;;;;;;;15.52;81.58;101715.34;5075612;28;20052;-40
2021/07/03 00:15:45;;;;;;;24.83;18.73;;;;;;;15.50;82.38;101710.16;5075487;28;20412;-40
2021/07/03 00:18:11;;;;;;;23.03;19.20;;;;;;;15.47;82.22;101707.94;5075908;28;20291;-40
2021/07/03 00:20:36;;;;;;;24.75;19.65;;;;;;;15.39;82.03;101716.47;5076518;28;20251;-41
2021/07/03 00:23:04;;;;;;;23.52;19.67;;;;;;;15.34;82.02;101713.66;5075648;28;20020;-40
2021/07/03 00:25:29;;;;;;;22.40;18.65;;;;;;;15.36;82.25;101711.50;5075868;28;20033;-41
2021/07/03 00:27:55;;;;;;;20.25;17.33;;;;;;;15.35;82.87;101705.22;5075590;28;20353;-41
2021/07/03 00:30:20;;;;;;;21.50;18.33;;;;;;;15.33;82.06;101710.09;5075639;28;20073;-41
2021/07/03 00:32:46;;;;;;;22.13;19.55;;;;;;;15.30;82.63;101709.75;5075233;28;20131;-40
2021/07/03 00:35:11;;;;;;;20.85;17.35;;;;;;;15.30;82.29;101710.56;5075473;28;20474;-40
2021/07/03 00:37:37;;;;;;;22.13;17.92;;;;;;;15.37;82.47;101711.28;5075420;28;20020;-40
2021/07/03 00:40:03;;;;;;;;;;;;;;;15.53;81.51;101698.78;5076429;28;20031;-40
2021/07/03 00:42:28;;;;;;;22.88;16.88;;;;;;;15.39;82.79;101700.94;5075315;28;19911;-40
2021/07/03 00:44:54;;;;;;;23.30;17.77;;;;;;;15.42;82.66;101705.06;5075653;28;20033;-40
2021/07/03 00:47:19;;;;;;;20.75;17.33;;;;;;;15.40;82.56;101699.88;5075512;28;20033;-40
2021/07/03 00:49:45;;;;;;;20.10;17.83;;;;;;;15.39;82.94;101694.69;5074990;28;20017;-40
2021/07/03 00:52:10;;;;;;;;;;;;;;;15.53;81.64;101696.06;5075489;28;20354;-40
2021/07/03 00:54:37;;;;;;;21.33;16.77;;;;;;;15.33;82.65;101707.38;5075314;28;20015;-40
2021/07/03 00:57:04;;;;;;;23.55;17.15;;;;;;;15.32;82.78;101699.44;5075680;28;20066;-40
2021/07/03 00:59:35;;;;;;;21.55;17.52;;;;;;;15.23;83.20;101700.91;5074993;28;20032;-40
2021/07/03 01:02:01;;;;;;;21.27;17.13;;;;;;;15.22;83.03;101700.03;5074928;28;20371;-40
2021/07/03 01:04:27;;;;;;;21.58;17.65;;;;;;;15.19;83.16;101695.91;5074647;28;20028;-40
2021/07/03 01:06:53;;;;;;;;;;;;;;;15.40;81.74;101696.31;5075939;28;20028;-40
2021/07/03 01:09:18;;;;;;;19.27;16.38;;;;;;;15.22;82.60;101697.31;5075408;28;20325;-40
2021/07/03 01:11:43;;;;;;;22.42;17.08;;;;;;;15.18;82.97;101707.91;5075375;28;20085;-40
2021/07/03 01:14:09;;;;;;;21.07;17.27;;;;;;;15.12;83.08;101699.84;5074613;28;20036;-40
2021/07/03 01:16:34;;;;;;;23.77;18.33;;;;;;;15.17;82.53;101708.94;5075428;28;20278;-40
2021/07/03 01:19:00;;;;;;;22.58;18.58;;;;;;;15.17;82.96;101702.66;5074559;28;20369;-40
2021/07/03 01:21:25;;;;;;;24.48;19.00;;;;;;;15.17;83.03;101703.50;5074584;28;20509;-40
2021/07/03 01:23:51;;;;;;;25.67;20.50;;;;;;;15.14;83.33;101695.81;5074486;28;20082;-40
2021/07/03 01:26:17;;;;;;;25.02;19.98;;;;;;;15.22;83.47;101693.78;5074976;28;20062;-40
2021/07/03 01:28:42;;;;;;;28.42;21.27;;;;;;;15.17;83.43;101698.03;5074367;28;20016;-40
2021/07/03 01:31:08;;;;;;;24.63;20.67;;;;;;;15.17;83.62;101698.03;5074314;28;20128;-40
2021/07/03 01:33:34;;;;;;;24.02;19.95;;;;;;;15.17;83.56;101689.03;5074355;28;20016;-40
2021/07/03 01:36:00;;;;;;;27.13;20.88;;;;;;;15.20;83.14;101692.13;5074017;28;20028;-40
2021/07/03 01:38:26;;;;;;;24.33;20.40;;;;;;;15.14;83.16;101695.00;5074292;28;20047;-40
2021/07/03 01:40:51;;;;;;;25.90;21.52;;;;;;;15.06;83.32;101696.19;5074322;28;20028;-40
2021/07/03 01:43:25;;;;;;;26.33;19.85;;;;;;;14.99;83.35;101698.22;5074162;28;20070;-40
2021/07/03 01:45:52;;;;;;;27.17;20.13;;;;;;;14.88;83.64;101699.03;5074917;28;20078;-40
2021/07/03 01:48:29;;;;;;;25.60;20.80;;;;;;;14.86;83.58;101695.75;5074325;28;20383;-42
2021/07/03 01:50:56;;;;;;;27.45;21.05;;;;;;;14.90;83.36;101692.31;5074577;28;20031;-40
2021/07/03 01:53:22;;;;;;;28.38;21.85;;;;;;;14.85;83.51;101696.81;5074192;28;20081;-40
2021/07/03 01:55:48;;;;;;;26.25;20.30;;;;;;;14.81;83.79;101704.63;5074002;28;20021;-40
2021/07/03 01:58:21;;;;;;;;;;;;;;;14.99;82.67;101700.13;5074406;28;20025;-40
2021/07/03 02:00:48;;;;;;;23.30;18.73;;;;;;;14.83;82.96;101697.03;5074265;28;19912;-40
2021/07/03 02:03:14;;;;;;;25.20;21.50;;;;;;;14.87;83.01;101692.78;5073590;28;20452;-40
2021/07/03 02:05:40;;;;;;;26.13;21.85;;;;;;;14.89;83.52;101693.38;5073644;28;20032;-40
2021/07/03 02:08:05;;;;;;;27.23;23.00;;;;;;;14.84;83.38;101692.44;5073800;28;20032;-40
2021/07/03 02:10:31;;;;;;;28.25;22.92;;;;;;;14.73;83.68;101687.81;5074620;28;20258;-40
2021/07/03 02:12:56;;;;;;;25.50;21.90;;;;;;;14.83;83.62;101685.31;5073482;28;20097;-41
2021/07/03 02:15:22;;;;;;;31.08;23.50;;;;;;;14.74;83.75;101679.44;5074269;28;20024;-40
2021/07/03 02:17:47;;;;;;;28.17;21.92;;;;;;;14.82;83.31;101672.78;5073597;28;20117;-40
2021/07/03 02:20:13;;;;;;;29.20;23.55;;;;;;;14.72;83.98;101661.66;5073642;28;20441;-40
2021/07/03 02:22:38;;;;;;;29.40;24.40;;;;;;;14.86;84.14;101663.06;5073328;28;20027;-40
2021/07/03 02:25:04;;;;;;;29.77;24.05;;;;;;;14.87;83.84;101670.16;5073198;28;20483;-40
2021/07/03 02:27:30;;;;;;;26.67;22.48;;;;;;;14.86;84.20;101654.91;5073208;28;20028;-40
2021/07/03 02:29:55;;;;;;;31.60;23.60;;;;;;;14.81;83.75;101660.25;5074326;28;20094;-40
2021/07/03 02:32:21;;;;;;;30.38;25.88;;;;;;;14.82;84.27;101659.16;5073106;28;20334;-40
2021/07/03 02:34:46;;;;;;;30.63;25.42;;;;;;;14.87;83.97;101665.53;5073075;28;20020;-40
2021/07/03 02:37:11;;;;;;;36.30;26.33;;;;;;;14.88;83.99;101671.81;5073473;28;20024;-40
2021/07/03 02:39:37;;;;;;;29.90;24.10;;;;;;;14.90;84.13;101665.06;5073235;28;20088;-40
2021/07/03 02:42:02;;;;;;;33.57;26.33;;;;;;;14.85;83.97;101658.69;5073134;28;20024;-40
2021/07/03 02:44:28;;;;;;;31.15;25.65;;;;;;;14.85;83.91;101658.69;5073631;28;20031;-40
2021/07/03 02:46:53;;;;;;;33.25;27.17;;;;;;;14.87;84.02;101653.81;5073081;28;20050;-41
2021/07/03 02:49:21;;;;;;;30.70;25.70;;;;;;;14.87;84.07;101656.56;5073321;28;20028;-40
2021/07/03 02:51:46;;;;;;;33.97;28.05;;;;;;;14.82;84.83;101640.94;5073258;28;20024;-40
2021/07/03 02:54:11;;;;;;;32.73;27.50;;;;;;;14.84;84.40;101646.97;5073120;28;20025;-40
2021/07/03 02:56:37;;;;;;;35.33;27.30;;;;;;;14.85;84.05;101642.34;5073533;28;20277;-40
2021/07/03 02:59:03;;;;;;;32.30;26.40;;;;;;;14.82;84.53;101637.38;5073237;28;20269;-40
2021/07/03 03:01:28;;;;;;;34.97;27.27;;;;;;;14.86;84.06;101642.09;5073802;28;20055;-40
2021/07/03 03:03:53;;;;;;;32.33;26.38;;;;;;;14.81;84.47;101643.91;5072754;28;20035;-40
2021/07/03 03:06:19;;;;;;;33.60;26.37;;;;;;;14.77;84.35;101634.56;5073118;28;20544;-40
2021/07/03 03:08:44;;;;;;;31.92;26.70;;;;;;;14.69;84.73;101635.75;5073205;28;20691;-40
2021/07/03 03:11:09;;;;;;;34.08;27.73;;;;;;;14.70;84.54;101639.31;5072983;28;20472;-40
2021/07/03 03:13:35;;;;;;;31.35;26.92;;;;;;;14.71;84.93;101627.34;5072719;28;20110;-40
2021/07/03 03:16:00;;;;;;;32.00;26.90;;;;;;;14.67;84.84;101627.81;5072701;28;20024;-40
2021/07/03 03:18:25;;;;;;;30.05;25.20;;;;;;;14.72;84.25;101620.84;5073817;28;20036;-40
2021/07/03 03:20:51;;;;;;;32.23;26.60;;;;;;;14.69;84.78;101635.75;5073004;28;20040;-40
2021/07/03 03:23:16;;;;;;;33.58;26.77;;;;;;;14.72;84.32;101629.00;5072648;28;20259;-40
2021/07/03 03:25:41;;;;;;;32.93;26.77;;;;;;;14.68;84.46;101626.75;5072969;28;20376;-40
2021/07/03 03:28:07;;;;;;;31.37;26.53;;;;;;;14.66;84.03;101625.34;5073164;28;20273;-40
2021/07/03 03:30:32;;;;;;;34.87;27.13;;;;;;;14.69;84.53;101624.88;5072689;28;20043;-40
2021/07/03 03:32:57;;;;;;;37.45;26.88;;;;;;;14.64;84.45;101627.47;5072851;28;20306;-40
2021/07/03 03:35:23;;;;;;;34.63;27.20;;;;;;;14.64;84.40;101628.31;5073556;28;20329;-40
2021/07/03 03:37:48;;;;;;;34.00;27.23;;;;;;;14.60;84.67;101624.41;5072760;28;20328;-40
2021/07/03 03:40:14;;;;;;;31.25;25.80;;;;;;;14.67;84.65;101622.38;5071792;28;20025;-40
2021/07/03 03:42:39;;;;;;;39.45;29.52;;;;;;;14.70;84.77;101617.53;5073284;28;20028;-40
2021/07/03 03:45:06;;;;;;;34.67;27.85;;;;;;;14.74;84.37;101632.28;5074893;28;20060;-40
2021/07/03 03:47:32;;;;;;;36.20;26.88;;;;;;;14.80;84.51;101631.34;5076360;28;20135;-40
2021/07/03 03:49:57;;;;;;;36.63;28.90;;;;;;;14.73;85.28;101620.59;5076063;28;20468;-40
2021/07/03 03:52:22;;;;;;;34.97;27.60;;;;;;;14.82;84.51;101626.50;5076240;28;20028;-40
2021/07/03 03:54:48;;;;;;;36.20;28.92;;;;;;;14.79;84.45;101619.66;5076731;28;20103;-40
2021/07/03 03:57:24;;;;;;;36.42;28.55;;;;;;;14.80;84.43;101615.03;5076186;28;20444;-40
2021/07/03 03:59:52;;;;;;;39.20;31.07;;;;;;;14.74;85.18;101611.38;5076215;28;20151;-40
2021/07/03 04:02:18;;;;;;;35.50;30.67;;;;;;;14.73;84.80;101623.31;5076053;28;20032;-40
2021/07/03 04:04:44;;;;;;;;;;;;;;;14.88;83.68;101620.06;5076783;28;20032;-40
2021/07/03 04:07:10;;;;;;;35.70;30.10;;;;;;;14.77;84.96;101619.03;5075998;28;20343;-40
2021/07/03 04:09:35;;;;;;;40.90;30.10;;;;;;;14.82;85.69;101618.31;5075983;28;20020;-40
2021/07/03 04:12:01;;;;;;;40.17;31.90;;;;;;;14.82;85.00;101618.31;5075938;28;20073;-40
2021/07/03 04:14:26;;;;;;;39.20;30.92;;;;;;;14.81;84.83;101617.50;5076628;28;20047;-40
2021/07/03 04:16:52;;;;;;;37.50;31.10;;;;;;;14.83;85.18;101623.53;5075906;28;20472;-40
2021/07/03 04:19:17;;;;;;;38.37;31.60;;;;;;;14.85;85.21;101620.56;5075446;28;20789;-40
2021/07/03 04:21:42;;;;;;;38.00;30.47;;;;;;;14.96;84.82;101627.88;5075839;28;20286;-40
2021/07/03 04:24:08;;;;;;;39.67;31.45;;;;;;;14.93;84.98;101629.19;5075722;28;20016;-40
2021/07/03 04:26:33;;;;;;;37.97;30.02;;;;;;;15.03;84.88;101627.72;5075062;28;20050;-40
2021/07/03 04:28:58;;;;;;;34.25;29.17;;;;;;;15.04;84.96;101629.41;5075616;28;20016;-41
2021/07/03 04:31:24;;;;;;;39.13;31.33;;;;;;;15.00;84.80;101625.50;5075925;28;20047;-41
2021/07/03 04:33:49;;;;;;;34.72;27.77;;;;;;;15.10;85.15;101626.53;5075614;28;20125;-40
2021/07/03 04:36:14;;;;;;;37.63;30.60;;;;;;;15.09;84.69;101627.63;5075481;28;20365;-40
2021/07/03 04:38:40;;;;;;;40.45;30.92;;;;;;;15.12;85.02;101632.56;5075162;28;20044;-40
2021/07/03 04:41:05;;;;;;;36.85;30.83;;;;;;;15.14;84.98;101633.16;5075440;28;20032;-40
2021/07/03 04:43:30;;;;;;;39.00;31.87;;;;;;;15.18;84.93;101628.88;5075375;28;20025;-40
2021/07/03 04:45:56;;;;;;;41.00;32.03;;;;;;;15.24;85.05;101635.25;5076207;28;20024;-41
2021/07/03 04:48:21;;;;;;;40.33;33.13;;;;;;;15.34;84.74;101629.19;5074380;28;20270;-40
2021/07/03 04:50:46;;;;;;;37.70;31.50;;;;;;;15.36;84.64;101635.19;5075865;28;20029;-40
2021/07/03 04:53:12;;;;;;;37.35;31.42;;;;;;;15.37;84.59;101632.25;5074893;28;20267;-40
2021/07/03 04:55:37;;;;;;;39.53;33.63;;;;;;;15.31;84.58;101629.66;5074640;28;20028;-40
2021/07/03 04:58:02;;;;;;;44.17;34.07;;;;;;;15.29;84.91;101629.06;5075044;28;20279;-40
2021/07/03 05:00:28;;;;;;;37.93;31.43;;;;;;;15.36;84.80;101629.75;5075434;28;20251;-40
2021/07/03 05:02:53;;;;;;;41.08;31.98;;;;;;;15.44;85.19;101635.63;5074967;28;20027;-40
2021/07/03 05:05:18;;;;;;;42.15;32.95;;;;;;;15.45;84.11;101639.19;5075265;28;20070;-40
2021/07/03 05:07:44;;;;;;;34.67;29.57;;;;;;;15.53;84.75;101633.34;5074592;28;20113;-40
2021/07/03 05:10:12;;;;;;;39.95;32.80;;;;;;;15.56;84.02;101635.56;5075467;28;20304;-40
2021/07/03 05:12:38;;;;;;;42.22;32.50;;;;;;;15.65;84.66;101633.31;5074729;28;20027;-40
2021/07/03 05:15:04;;;;;;;38.92;31.73;;;;;;;15.73;83.29;101630.19;5074876;28;20021;-40
2021/07/03 05:17:29;;;;;;;38.05;31.88;;;;;;;15.81;84.23;101618.88;5074799;28;20135;-40
2021/07/03 05:19:55;;;;;;;37.47;33.00;;;;;;;15.80;82.80;101613.66;5074948;28;20052;-40
2021/07/03 05:22:20;;;;;;;38.03;32.10;;;;;;;15.93;83.39;101610.63;5074515;28;20392;-40
2021/07/03 05:24:46;;;;;;;;;;;;;;;16.04;82.88;101604.25;5074762;28;20024;-40
2021/07/03 05:27:11;;;;;;;40.28;31.73;;;;;;;16.15;83.63;101611.53;5074412;28;20289;-40
2021/07/03 05:29:37;;;;;;;37.30;30.75;;;;;;;16.22;82.03;101603.97;5074180;28;20020;-40
2021/07/03 05:32:02;;;;;;;;;;;;;;;16.35;81.83;101604.72;5074726;28;20031;-40
2021/07/03 05:34:27;;;;;;;39.45;30.58;;;;;;;16.42;82.50;101599.91;5074286;28;19916;-40
2021/07/03 05:36:53;;;;;;;34.58;29.50;;;;;;;16.40;81.41;101602.06;5074567;28;20448;-40
2021/07/03 05:39:18;;;;;;;34.20;29.55;;;;;;;16.43;80.69;101594.19;5074561;28;20463;-40
2021/07/03 05:41:43;;;;;;;42.40;29.55;;;;;;;16.52;81.03;101591.84;5074214;28;20506;-40
2021/07/03 05:44:09;;;;;;;37.83;29.40;;;;;;;16.64;81.09;101598.03;5074166;28;20025;-40
2021/07/03 05:46:34;;;;;;;;;;;;;;;16.83;81.26;101604.00;5075199;28;20031;-40
2021/07/03 05:48:59;;;;;;;31.85;27.27;;;;;;;16.78;79.50;101593.03;5074084;28;20237;-40
2021/07/03 05:51:27;;;;;;;;;;;;;;;16.98;79.97;101597.91;5074170;28;20066;-40
2021/07/03 05:53:52;;;;;;;39.83;29.75;;;;;;;16.93;79.37;101601.44;5073762;28;20240;-40
2021/07/03 05:56:18;;;;;;;;;;;;;;;17.05;79.09;101606.75;5075103;28;20031;-40
2021/07/03 05:58:43;;;;;;;34.10;27.80;;;;;;;16.95;79.46;101596.53;5073571;28;20327;-40
2021/07/03 06:01:09;;;;;;;34.90;28.80;;;;;;;17.07;78.88;101587.34;5074496;28;20082;-40
2021/07/03 06:03:34;;;;;;;;;;;;;;;17.23;79.13;101595.47;5074540;28;20024;-40
2021/07/03 06:05:59;;;;;;;36.25;29.23;;;;;;;17.19;78.93;101588.88;5074056;28;20003;-40
2021/07/03 06:08:25;;;;;;;31.75;28.20;;;;;;;17.27;79.32;101584.00;5072636;28;20021;-40
2021/07/03 06:10:50;;;;;;;;;;;;;;;17.45;79.37;101591.84;5074452;28;20457;-40
2021/07/03 06:13:16;;;;;;;31.80;26.30;;;;;;;17.49;77.30;101593.81;5073746;28;20348;-40
2021/07/03 06:15:41;;;;;;;31.25;27.45;;;;;;;17.55;77.39;101588.41;5073849;28;20314;-41
2021/07/03 06:18:06;;;;;;;;;;;;;;;17.65;77.31;101585.75;5074252;28;20123;-40
2021/07/03 06:20:32;;;;;;;32.20;26.95;;;;;;;17.59;77.13;101576.69;5074395;28;19908;-40
2021/07/03 06:22:57;;;;;;;;;;;;;;;17.79;77.57;101584.25;5074232;28;20021;-40
2021/07/03 06:25:22;;;;;;;30.33;25.50;;;;;;;17.78;77.77;101585.34;5073536;28;19915;-40
2021/07/03 06:27:47;;;;;;;33.72;28.20;;;;;;;17.73;77.26;101583.41;5074058;28;20267;-40
2021/07/03 06:30:13;;;;;;;;;;;;;;;17.84;77.49;101581.56;5074185;28;20032;-40
2021/07/03 06:32:39;;;;;;;31.08;26.08;;;;;;;17.88;77.54;101582.69;5073043;28;19908;-41
2021/07/03 06:35:05;;;;;;;;;;;;;;;18.02;76.50;101591.28;5074540;28;20048;-40
2021/07/03 06:37:30;;;;;;;29.08;25.33;;;;;;;18.05;76.08;101585.25;5073720;28;20331;-41
2021/07/03 06:39:56;;;;;;;32.75;27.85;;;;;;;18.18;77.23;101590.28;5073459;28;20016;-40
2021/07/03 06:42:21;;;;;;;;;;;;;;;18.34;77.09;101587.66;5073805;28;20103;-40
2021/07/03 06:44:47;;;;;;;29.58;24.83;;;;;;;18.38;76.22;101586.84;5073609;28;20340;-40
2021/07/03 06:47:16;;;;;;;;;;;;;;;18.39;74.72;101590.41;5074240;28;20031;-40
2021/07/03 06:49:42;;;;;;;28.65;25.55;;;;;;;18.41;75.78;101593.72;5073720;28;20256;-41
2021/07/03 06:52:09;;;;;;;;;;;;;;;18.54;75.83;101585.00;5073331;28;20040;-41
2021/07/03 06:54:35;;;;;;;27.05;24.15;;;;;;;18.58;73.91;101585.31;5073461;28;19958;-41
2021/07/03 06:57:00;;;;;;;;;;;;;;;18.73;74.52;101597.19;5074041;28;20031;-41
2021/07/03 06:59:26;;;;;;;26.53;23.23;;;;;;;18.74;74.54;101590.66;5073203;28;19904;-41
2021/07/03 07:01:52;;;;;;;25.83;23.20;;;;;;;18.84;74.63;101594.50;5073691;28;20275;-40
2021/07/03 07:04:20;;;;;;;;;;;;;;;18.98;75.01;101592.91;5073495;28;20035;-40
2021/07/03 07:06:49;;;;;;;26.63;23.70;;;;;;;18.99;74.27;101586.34;5073337;28;19904;-40
2021/07/03 07:09:15;;;;;;;27.55;24.63;;;;;;;19.12;74.65;101587.75;5073579;28;20110;-41
2021/07/03 07:11:40;;;;;;;;;;;;;;;19.16;73.12;101580.63;5073743;28;20048;-40
2021/07/03 07:14:05;;;;;;;26.10;23.42;;;;;;;19.16;73.59;101575.13;5073696;28;19904;-40
2021/07/03 07:16:31;;;;;;;;;;;;;;;19.25;73.99;101579.00;5073705;28;20052;-40
2021/07/03 07:18:56;;;;;;;24.60;21.57;;;;;;;19.28;71.98;101576.56;5073718;28;20405;-41
2021/07/03 07:21:21;;;;;;;;;;;;;;;19.43;73.37;101585.91;5077344;28;20770;-40
2021/07/03 07:23:46;;;;;;;22.83;19.70;;;;;;;19.48;70.70;101581.25;5076877;28;19969;-40
2021/07/03 07:26:12;;;;;;;;;;;;;;;19.61;72.84;101585.38;5077479;28;20298;-40
2021/07/03 07:28:37;;;;;;;21.90;19.60;;;;;;;19.61;70.57;101581.81;5076474;28;20274;-40
2021/07/03 07:31:02;;;;;;;;;;;;;;;19.77;72.06;101587.03;5077669;28;20027;-40
2021/07/03 07:33:28;;;;;;;23.92;21.08;;;;;;;19.79;71.09;101586.75;5077411;28;19949;-40
2021/07/03 07:35:53;;;;;;;;;;;;;;;19.89;71.08;101584.00;5077492;28;20028;-40
2021/07/03 07:38:18;;;;;;;23.00;20.20;;;;;;;19.82;69.28;101568.94;5076470;28;19931;-40
2021/07/03 07:40:44;;;;;;;;;;;;;;;19.99;71.55;101584.00;5077678;28;20273;-40
2021/07/03 07:43:09;;;;;;;23.23;19.88;;;;;;;19.99;71.28;101570.28;5076336;28;19916;-40
2021/07/03 07:45:34;;;;;;;;;;;;;;;20.14;71.54;101572.19;5076542;28;20029;-40
2021/07/03 07:48:00;;;;;;;21.60;18.27;;;;;;;20.23;68.69;101564.19;5076368;28;19958;-40
2021/07/03 07:50:25;;;;;;;24.75;18.90;;;;;;;20.24;68.55;101569.41;5076366;28;20028;-40
2021/07/03 07:52:50;;;;;;;;;;;;;;;20.39;70.04;101574.03;5076649;28;20104;-40
2021/07/03 07:55:16;;;;;;;22.52;19.58;;;;;;;20.39;68.89;101563.03;5076177;28;19915;-40
2021/07/03 07:57:41;;;;;;;;;;;;;;;20.53;68.02;101560.56;5076608;28;20052;-40
2021/07/03 08:00:07;;;;;;;20.85;18.70;;;;;;;20.62;68.55;101560.81;5076394;28;19908;-40
2021/07/03 08:02:32;;;;;;;22.63;19.60;;;;;;;20.69;66.82;101566.81;5076053;28;20461;-40
2021/07/03 08:04:58;;;;;;;;;;;;;;;20.74;68.57;101562.16;5076778;28;20073;-40
2021/07/03 08:07:23;;;;;;;18.90;15.77;;;;;;;20.86;67.16;101561.81;5076860;28;19949;-40
2021/07/03 08:09:48;;;;;;;19.60;17.50;;;;;;;20.94;67.28;101560.41;5076576;28;20017;-40
2021/07/03 08:12:14;;;;;;;;;;;;;;;21.08;68.69;101562.25;5076810;28;20017;-40
2021/07/03 08:14:39;;;;;;;18.73;16.73;;;;;;;21.07;65.97;101557.00;5076557;28;19912;-40
2021/07/03 08:17:05;;;;;;;22.55;16.88;;;;;;;21.16;65.28;101554.47;5076326;28;20051;-40
2021/07/03 08:19:30;;;;;;;19.25;16.80;;;;;;;21.28;65.62;101554.97;5075744;28;20016;-40
2021/07/03 08:21:58;;;;;;;19.52;17.15;;;;;;;21.40;64.55;101555.44;5076023;28;20024;-40
2021/07/03 08:24:24;;;;;;;21.38;16.10;;;;;;;21.48;65.67;101552.09;5075590;28;20098;-40
2021/07/03 08:26:50;;;;;;;20.65;15.65;;;;;;;21.66;65.45;101544.22;5075903;28;20507;-40
2021/07/03 08:29:15;;;;;;;;;;;;;;;21.77;65.40;101548.56;5076289;28;20025;-40
2021/07/03 08:31:41;;;;;;;16.90;15.13;;;;;;;21.89;64.50;101539.91;5074954;28;20284;-40
2021/07/03 08:34:06;;;;;;;16.63;14.82;;;;;;;21.84;64.14;101544.34;5075344;28;20615;-40
2021/07/03 08:36:31;;;;;;;15.82;14.23;;;;;;;21.96;62.78;101549.47;5075757;28;20342;-40
2021/07/03 08:38:57;;;;;;;18.63;14.15;;;;;;;21.97;62.39;101537.34;5076409;28;20452;-40
2021/07/03 08:41:23;;;;;;;18.75;15.98;;;;;;;22.12;63.00;101535.56;5075931;28;20450;-40
2021/07/03 08:43:50;;;;;;;14.95;13.40;;;;;;;22.21;63.45;101537.41;5075572;28;20032;-40
2021/07/03 08:46:21;;;;;;;15.30;13.75;;;;;;;22.27;60.68;101529.88;5075271;28;20111;-40
2021/07/03 08:48:52;;;;;;;14.05;12.55;;;;;;;22.34;61.80;101539.44;5075474;28;20048;-40
2021/07/03 08:51:17;;;;;;;15.32;13.73;;;;;;;22.48;61.00;101523.00;5074670;28;20473;-40
2021/07/03 08:53:43;;;;;;;15.85;12.55;;;;;;;22.50;58.14;101523.56;5075372;28;20029;-40
2021/07/03 08:56:08;;;;;;;19.27;12.68;;;;;;;22.64;60.87;101526.38;5075602;28;20427;-40
2021/07/03 08:58:33;;;;;;;14.50;12.00;;;;;;;22.80;61.39;101524.28;5075216;28;20024;-40
2021/07/03 09:01:03;;;;;;;13.30;11.25;;;;;;;22.90;59.29;101515.06;5075282;28;20032;-40
2021/07/03 09:03:28;;;;;;;12.45;11.15;;;;;;;23.11;59.26;101510.88;5075123;28;20048;-41
2021/07/03 09:05:56;;;;;;;13.75;12.05;;;;;;;23.16;57.54;101513.56;5075096;28;20024;-40
2021/07/03 09:08:28;;;;;;;11.60;10.43;;;;;;;23.28;57.86;101516.69;5075248;28;20070;-40
2021/07/03 09:11:06;;;;;;;12.25;10.27;;;;;;;23.55;59.16;101512.38;5075088;28;20024;-40
2021/07/03 09:13:32;;;;;;;13.30;10.45;;;;;;;23.63;57.62;101507.00;5074668;28;20372;-41
2021/07/03 09:15:57;;;;;;;12.00;10.60;;;;;;;23.73;56.80;101516.25;5075238;28;20020;-41
2021/07/03 09:18:25;;;;;;;12.15;10.85;;;;;;;23.68;56.59;101510.81;5075335;28;20048;-41
2021/07/03 09:21:07;;;;;;;11.23;10.02;;;;;;;23.46;57.66;101516.94;5075122;28;20027;-41
2021/07/03 09:23:36;;;;;;;12.13;10.30;;;;;;;23.19;57.27;101514.91;5075286;28;20020;-41
2021/07/03 09:26:11;;;;;;;10.63;9.50;;;;;;;23.08;57.34;101528.84;5074966;28;20078;-41
2021/07/03 09:28:43;;;;;;;10.43;9.38;;;;;;;22.91;58.19;101527.72;5075050;28;20047;-41
2021/07/03 09:31:12;;;;;;;12.18;9.32;;;;;;;22.79;57.76;101520.69;5074355;28;20031;-42
2021/07/03 09:33:40;;;;;;;10.68;9.55;;;;;;;22.70;58.98;101521.66;5074350;28;20115;-40
2021/07/03 09:36:10;;;;;;;9.75;8.75;;;;;;;22.68;57.48;101519.16;5074497;28;20021;-41
2021/07/03 09:38:37;;;;;;;10.13;8.95;;;;;;;22.69;59.86;101526.31;5075184;28;20013;-41
2021/07/03 09:41:09;;;;;;;11.55;8.75;;;;;;;22.73;57.23;101515.53;5074462;28;20033;-41
2021/07/03 09:43:35;;;;;;;10.18;9.07;;;;;;;22.74;58.69;101522.69;5073848;28;20532;-41
2021/07/03 09:46:01;;;;;;;13.80;9.80;;;;;;;22.76;58.67;101515.75;5074679;28;20074;-41
2021/07/03 09:48:27;;;;;;;11.52;9.20;;;;;;;22.80;58.05;101514.06;5074207;28;20052;-41
2021/07/03 09:50:52;;;;;;;10.88;9.30;;;;;;;22.80;60.22;101514.06;5074256;28;20421;-40
2021/07/03 09:53:19;;;;;;;10.23;8.38;;;;;;;22.84;59.36;101517.03;5073868;28;20020;-41
2021/07/03 09:55:45;;;;;;;11.38;9.30;;;;;;;22.83;59.17;101510.69;5074338;28;20056;-40
2021/07/03 09:58:11;;;;;;;10.68;8.50;;;;;;;22.88;58.06;101510.63;5074015;28;20061;-40
2021/07/03 10:00:38;;;;;;;10.65;8.43;;;;;;;22.94;58.54;101513.34;5073710;28;20031;-41
2021/07/03 10:03:06;;;;;;;9.77;8.15;;;;;;;22.99;60.01;101510.53;5073767;28;20025;-41
2021/07/03 10:05:39;;;;;;;8.00;7.18;;;;;;;23.04;58.96;101499.41;5074238;28;20047;-41
2021/07/03 10:08:08;;;;;;;10.63;8.65;;;;;;;23.10;57.27;101509.25;5073943;28;20024;-41
2021/07/03 10:10:36;;;;;;;9.38;8.48;;;;;;;23.13;58.88;101514.13;5074425;28;20025;-41
2021/07/03 10:13:11;;;;;;;11.48;8.63;;;;;;;23.09;59.31;101510.38;5074336;28;20028;-41
2021/07/03 10:15:37;;;;;;;9.93;7.78;;;;;;;23.07;58.37;101502.38;5073814;28;20024;-40
2021/07/03 10:18:14;;;;;;;7.70;6.90;;;;;;;23.08;56.90;101508.69;5074217;28;20047;-41
2021/07/03 10:20:42;;;;;;;7.97;6.90;;;;;;;23.11;55.97;101513.63;5074049;28;20024;-41
2021/07/03 10:23:08;;;;;;;9.50;6.82;;;;;;;23.12;57.62;101502.28;5073755;28;20024;-41
2021/07/03 10:25:36;;;;;;;9.18;6.97;;;;;;;23.15;58.60;101500.88;5074528;28;20079;-40
2021/07/03 10:28:06;;;;;;;9.02;6.45;;;;;;;23.12;57.92;101507.00;5073451;28;20029;-41
2021/07/03 10:30:33;;;;;;;7.78;6.35;;;;;;;23.14;58.41;101507.53;5074232;28;20476;-40
2021/07/03 10:33:00;;;;;;;7.53;5.97;;;;;;;23.16;57.20;101496.19;5073616;28;20071;-41
2021/07/03 10:35:27;;;;;;;6.68;5.82;;;;;;;23.22;57.29;101500.50;5073856;28;20065;-40
2021/07/03 10:37:54;;;;;;;6.38;5.55;;;;;;;23.29;57.83;101496.25;5073596;28;20040;-40
2021/07/03 10:40:27;;;;;;;5.78;5.22;;;;;;;23.25;58.67;101492.44;5074165;28;20016;-41
2021/07/03 10:42:54;;;;;;;6.78;5.75;;;;;;;23.29;56.61;101500.94;5074342;28;20107;-41
2021/07/03 10:45:23;;;;;;;7.20;5.78;;;;;;;23.32;57.73;101492.03;5074127;28;20032;-41
2021/07/03 10:47:53;;;;;;;6.38;5.70;;;;;;;23.34;58.07;101487.06;5073461;28;20073;-41
2021/07/03 10:50:23;;;;;;;6.63;5.72;;;;;;;23.34;57.55;101482.38;5073791;28;20445;-40
2021/07/03 10:52:49;;;;;;;7.97;6.13;;;;;;;23.33;56.76;101493.72;5073722;28;20369;-41
2021/07/03 10:55:30;;;;;;;6.30;5.70;;;;;;;23.30;58.01;101492.34;5076385;28;20356;-41
2021/07/03 10:57:55;;;;;;;8.95;5.35;;;;;;;23.28;58.97;101489.09;5077947;28;20449;-41
2021/07/03 11:00:23;;;;;;;7.55;5.75;;;;;;;23.24;58.94;101488.06;5077847;28;20028;-41
2021/07/03 11:02:49;;;;;;;5.88;5.28;;;;;;;23.20;58.83;101478.72;5077168;28;20027;-41
2021/07/03 11:05:15;;;;;;;6.85;5.95;;;;;;;23.13;58.14;101481.88;5077771;28;20440;-41
2021/07/03 11:07:46;;;;;;;8.10;5.90;;;;;;;23.07;58.00;101479.47;5077921;28;20017;-41
2021/07/03 11:10:17;;;;;;;5.78;5.13;;;;;;;23.01;56.31;101476.00;5078120;28;20384;-41
2021/07/03 11:12:55;;;;;;;7.10;5.28;;;;;;;23.02;57.79;101479.56;5075948;28;20020;-41
2021/07/03 11:15:29;;;;;;;6.75;5.18;;;;;;;23.01;58.88;101476.00;5078066;28;20395;-41
2021/07/03 11:17:59;;;;;;;5.07;4.32;;;;;;;23.02;57.48;101463.00;5077683;28;20119;-41